Jacksonville, FL (32228)

5:28 AM EST on December 03, 2016 (GMT -0500)
Atlantic Beach/Mayport | | Change Station

Elev 13 ft 30.37 °N, 81.41 °W | Updated 6 seconds ago

Clear
Clear
52.3 °F
Feels Like 52.3 °F
N
0.0
Wind Variable Wind from WSW
Gusts 1.0 mph

Today
High -- | Low -- °F
--% Chance of Precip.
Yesterday
High -- | Low -- °F
Precip. -- in
Pressure 30.18 in
Visibility 10.0 miles
Clouds Clear
Dew Point 48 °F
Humidity 85%
Rainfall 0.00 in
Snow Depth Not available.
7:06 AM 5:24 PM
Waxing Crescent, 14% visible
METAR KNRB 030952Z AUTO 31004KT 10SM CLR 12/08 A3018 RMK AO2 SLP220 T01170078
Pressure 30.18 in
Visibility 10.0 miles
Clouds Clear
Dew Point 48 °F
Humidity 85%
Rainfall 0.00 in
Snow Depth Not available.
7:06 AM 5:24 PM
Waxing Crescent, 14% visible
METAR KNRB 030952Z AUTO 31004KT 10SM CLR 12/08 A3018 RMK AO2 SLP220 T01170078

10-Day Weather Forecast

Almanac

Astronomy

Dec. 03, 2016 Rise Set
Actual Time
Civil Twilight
Nautical Twilight
Astronomical Twilight
Moon
Length of Visible Light
Length of Day
Tomorrow will be .
, % of the Moon is Illuminated

Today's Extremes

State Highs State Lows

Community

WunderPhotos

Upload Photos

1,955,434 photos uploaded!

WunderBlog® & News

Nearby

Air Quality

  Air Quality AQ Index Pollutant
Not available.

Snow Depth

Station Depth Elevation

Earthquake Activity

City Distance Mag. Time & Date
Minimum magnitude displayed is 2.5.

Coastal Water Temperatures

Place Temperature

Stations

Nearby Weather Stations

Station Location Temp. Windchill Dew Point Humidity Wind Precip. Elev Updated Type
                   

Watches & Warnings

There are currently no watches in effect.